Time;durP1;ratioP1;P1;durP2;ratioP2;P2;SDS_P1;SDS_P2;PMS_P1;PMS_P2;Temp;Humidity;BMP_temperature;BMP_pressure;BME280_temperature;BME280_humidity;BME280_pressure;Samples;Min_cycle;Max_cycle;Signal;HPM_P1;HPM_P2
2023/08/05 00:02:05;;;;;;;5.15;2.92;;;;;;;18.29;49.49;101244.19;5066925;28;20305;-74
2023/08/05 00:04:34;;;;;;;5.78;3.15;;;;;;;18.30;49.67;101248.69;5050106;28;20131;-74
2023/08/05 00:07:02;;;;;;;4.97;3.20;;;;;;;18.26;49.75;101248.16;5070999;28;20048;-74
2023/08/05 00:09:31;;;;;;;4.30;2.92;;;;;;;18.24;49.32;101243.81;5063074;28;20091;-74
2023/08/05 00:11:58;;;;;;;5.15;3.20;;;;;;;18.24;49.62;101252.13;5067951;28;20041;-74
2023/08/05 00:14:26;;;;;;;4.55;2.67;;;;;;;18.22;49.65;101252.34;5049945;28;20559;-74
2023/08/05 00:16:54;;;;;;;4.32;2.90;;;;;;;18.20;49.84;101251.63;5064872;28;20079;-74
2023/08/05 00:19:22;;;;;;;4.60;3.28;;;;;;;18.20;49.75;101250.75;5051895;28;20123;-75
2023/08/05 00:21:51;;;;;;;5.53;3.13;;;;;;;18.20;50.15;101251.63;5067579;28;20067;-74
2023/08/05 00:24:19;;;;;;;3.97;2.72;;;;;;;18.17;49.84;101242.78;5069440;28;20052;-74
2023/08/05 00:26:47;;;;;;;4.07;2.90;;;;;;;18.15;49.68;101240.19;5046860;28;20048;-74
2023/08/05 00:29:15;;;;;;;3.95;2.40;;;;;;;18.14;49.69;101236.56;5066804;28;20060;-74
2023/08/05 00:31:43;;;;;;;5.07;2.65;;;;;;;18.13;50.02;101228.44;5049359;28;20490;-74
2023/08/05 00:34:11;;;;;;;4.60;2.35;;;;;;;18.12;49.73;101232.25;5048817;28;20044;-73
2023/08/05 00:36:39;;;;;;;4.75;2.58;;;;;;;18.11;49.88;101231.38;5048873;28;20048;-74
2023/08/05 00:39:08;;;;;;;5.47;2.80;;;;;;;18.11;49.53;101234.16;5067448;28;20040;-74
2023/08/05 00:41:36;;;;;;;3.60;2.17;;;;;;;18.08;49.75;101228.94;5046858;28;20441;-75
2023/08/05 00:44:04;;;;;;;4.65;2.53;;;;;;;18.07;49.84;101223.56;5049977;28;20033;-74
2023/08/05 00:46:32;;;;;;;5.03;2.63;;;;;;;18.06;49.65;101216.34;5051689;28;20430;-74
2023/08/05 00:49:00;;;;;;;4.80;2.33;;;;;;;18.04;49.50;101210.97;5053409;28;20048;-74
2023/08/05 00:51:28;;;;;;;4.70;2.42;;;;;;;18.03;49.66;101208.38;5051954;28;20531;-74
2023/08/05 00:53:57;;;;;;;4.95;2.40;;;;;;;18.01;49.70;101214.06;5050384;28;20389;-74
2023/08/05 00:56:26;;;;;;;4.45;2.60;;;;;;;18.01;49.64;101210.44;5066003;28;20412;-74
2023/08/05 00:58:54;;;;;;;4.53;2.40;;;;;;;17.98;49.54;101196.94;5049786;28;20048;-74
2023/08/05 01:01:22;;;;;;;3.75;2.40;;;;;;;17.96;49.54;101207.34;5063791;28;20127;-74
2023/08/05 01:03:51;;;;;;;5.88;2.60;;;;;;;17.95;49.40;101209.25;5050861;28;20053;-75
2023/08/05 01:06:20;;;;;;;4.38;2.40;;;;;;;17.94;49.03;101215.81;5047272;28;20499;-74
2023/08/05 01:08:49;;;;;;;3.75;2.10;;;;;;;17.92;49.60;101215.13;5067269;28;20143;-75
2023/08/05 01:11:18;;;;;;;4.10;2.40;;;;;;;17.90;49.06;101208.88;5063741;28;20598;-74
2023/08/05 01:13:47;;;;;;;4.57;2.40;;;;;;;17.90;49.21;101205.25;5067652;28;20438;-75
2023/08/05 01:16:15;;;;;;;4.18;2.45;;;;;;;17.86;49.31;101209.41;5066818;28;20090;-74
2023/08/05 01:18:44;;;;;;;4.82;2.55;;;;;;;17.84;49.65;101206.81;5065124;28;20081;-74
2023/08/05 01:21:18;;;;;;;4.95;2.30;;;;;;;17.84;49.58;101204.03;5066732;28;20044;-74
2023/08/05 01:23:55;;;;;;;3.40;2.30;;;;;;;17.82;49.30;101206.13;5050550;28;20056;-75
2023/08/05 01:26:26;;;;;;;4.00;2.70;;;;;;;17.78;49.49;101199.22;5064854;28;20134;-75
2023/08/05 01:28:54;;;;;;;5.25;2.88;;;;;;;17.74;49.66;101197.81;5065435;28;20508;-75
2023/08/05 01:31:23;;;;;;;3.95;2.53;;;;;;;17.71;49.35;101195.38;5063799;28;20073;-73
2023/08/05 01:33:51;;;;;;;4.47;2.60;;;;;;;17.69;48.92;101212.16;5046581;28;20045;-74
2023/08/05 01:36:21;;;;;;;5.05;2.65;;;;;;;17.68;49.10;101215.09;5047743;28;21160;-74
2023/08/05 01:38:50;;;;;;;5.43;2.40;;;;;;;17.66;49.53;101204.19;5048122;28;20158;-73
2023/08/05 01:41:18;;;;;;;3.97;2.47;;;;;;;17.64;49.59;101205.41;5049358;28;20041;-74
2023/08/05 01:43:47;;;;;;;4.95;2.85;;;;;;;17.64;49.36;101208.19;5066580;28;20047;-74
2023/08/05 01:46:15;;;;;;;5.10;2.83;;;;;;;17.61;49.33;101208.50;5050029;28;20063;-75
2023/08/05 01:48:43;;;;;;;4.13;2.53;;;;;;;17.59;49.66;101199.50;5066104;28;20530;-74
2023/08/05 01:51:11;;;;;;;4.70;2.60;;;;;;;17.56;49.17;101208.16;5052937;28;20479;-74
2023/08/05 01:53:39;;;;;;;4.65;2.85;;;;;;;17.55;49.67;101217.50;5052278;28;20048;-74
2023/08/05 01:56:07;;;;;;;3.95;2.38;;;;;;;17.53;49.35;101222.34;5064341;28;20036;-74
2023/08/05 01:58:35;;;;;;;5.05;2.72;;;;;;;17.51;49.32;101224.41;5049140;28;20403;-75
2023/08/05 02:01:04;;;;;;;4.07;2.70;;;;;;;17.51;49.38;101227.19;5059246;28;20075;-75
2023/08/05 02:03:32;;;;;;;4.75;2.80;;;;;;;17.46;49.28;101213.00;5068866;28;20040;-75
2023/08/05 02:06:02;;;;;;;4.70;2.72;;;;;;;17.42;48.93;101209.69;5051408;28;20565;-74
2023/08/05 02:08:30;;;;;;;4.43;2.90;;;;;;;17.38;48.86;101208.31;5050991;28;20589;-74
2023/08/05 02:10:58;;;;;;;5.40;2.60;;;;;;;17.35;48.87;101203.13;5068019;28;20151;-74
2023/08/05 02:13:26;;;;;;;3.22;2.33;;;;;;;17.30;49.10;101195.34;5051662;28;20052;-74
2023/08/05 02:15:54;;;;;;;4.72;3.08;;;;;;;17.27;49.04;101198.44;5047577;28;20054;-74
2023/08/05 02:18:23;;;;;;;4.50;2.70;;;;;;;17.26;49.42;101191.16;5069352;28;20040;-75
2023/08/05 02:20:51;;;;;;;4.05;2.60;;;;;;;17.22;49.48;101202.75;5052098;28;20082;-74
2023/08/05 02:23:19;;;;;;;4.55;2.42;;;;;;;17.20;49.04;101202.91;5052723;28;20048;-75
2023/08/05 02:25:47;;;;;;;4.25;2.60;;;;;;;17.18;49.46;101204.97;5068873;28;20453;-75
2023/08/05 02:28:15;;;;;;;4.18;2.85;;;;;;;17.17;49.19;101208.78;5068805;28;20047;-75
2023/08/05 02:30:43;;;;;;;3.70;2.33;;;;;;;17.17;49.57;101207.91;5067153;28;20037;-74
2023/08/05 02:33:11;;;;;;;5.53;2.53;;;;;;;17.15;49.87;101208.09;5049638;28;20076;-74
2023/08/05 02:35:40;;;;;;;5.97;3.20;;;;;;;17.15;49.94;101208.09;5052587;28;20094;-74
2023/08/05 02:38:08;;;;;;;5.10;2.50;;;;;;;17.12;49.80;101202.91;5053409;28;20057;-74
2023/08/05 02:40:36;;;;;;;4.68;2.80;;;;;;;17.12;49.38;101202.03;5069673;28;20090;-75
2023/08/05 02:43:04;;;;;;;3.90;2.70;;;;;;;17.09;49.43;101192.16;5051924;28;20049;-75
2023/08/05 02:45:33;;;;;;;4.82;2.30;;;;;;;17.09;49.44;101194.06;5067219;28;20102;-73
2023/08/05 02:48:01;;;;;;;3.72;2.50;;;;;;;17.05;49.88;101190.78;5050494;28;20040;-74
2023/08/05 02:50:30;;;;;;;4.05;2.60;;;;;;;17.05;49.52;101195.44;5067254;28;20384;-74
2023/08/05 02:52:59;;;;;;;4.55;2.25;;;;;;;17.05;49.56;101190.78;5066941;28;20041;-75
2023/08/05 02:55:28;;;;;;;5.75;2.22;;;;;;;17.02;49.53;101199.41;5068422;28;20429;-75
2023/08/05 02:57:56;;;;;;;3.83;2.15;;;;;;;17.00;49.29;101198.69;5050162;28;20041;-74
2023/08/05 03:00:24;;;;;;;3.70;2.40;;;;;;;16.99;49.09;101194.19;5067956;28;20052;-74
2023/08/05 03:02:52;;;;;;;4.60;2.75;;;;;;;16.98;49.29;101193.38;5049969;28;20041;-75
2023/08/05 03:05:20;;;;;;;4.97;2.45;;;;;;;16.98;49.12;101190.59;5045320;28;20048;-74
2023/08/05 03:07:48;;;;;;;4.45;2.83;;;;;;;16.97;49.43;101185.22;5048013;28;20147;-74
2023/08/05 03:10:17;;;;;;;4.68;2.47;;;;;;;16.98;49.00;101185.06;5049085;28;20458;-75
2023/08/05 03:12:46;;;;;;;4.70;2.85;;;;;;;16.96;48.92;101183.47;5049563;28;20055;-75
2023/08/05 03:15:14;;;;;;;5.03;2.60;;;;;;;16.94;49.24;101189.16;5051720;28;20167;-74
2023/08/05 03:17:42;;;;;;;4.05;2.58;;;;;;;16.93;49.45;101192.94;5053032;28;20122;-74
2023/08/05 03:20:25;;;;;;;3.83;2.53;;;;;;;16.95;49.23;101181.72;5046782;28;20032;-74
2023/08/05 03:22:58;;;;;;;4.30;2.78;;;;;;;16.89;49.11;101182.41;5048162;28;20127;-75
2023/08/05 03:25:29;;;;;;;3.85;2.35;;;;;;;16.88;49.27;101173.25;5049776;28;20131;-75
2023/08/05 03:28:00;;;;;;;4.88;2.78;;;;;;;16.85;49.18;101169.94;5046302;28;20040;-75
2023/08/05 03:30:31;;;;;;;3.67;2.45;;;;;;;16.80;49.27;101167.69;5050559;28;20455;-73
2023/08/05 03:32:59;;;;;;;5.03;2.60;;;;;;;16.77;49.11;101170.78;5051709;28;20333;-74
2023/08/05 03:35:30;;;;;;;4.45;2.60;;;;;;;16.75;49.23;101158.16;5049842;28;20040;-75
2023/08/05 03:37:59;;;;;;;3.80;2.40;;;;;;;16.71;49.25;101167.84;5052451;28;20052;-74
2023/08/05 03:40:28;;;;;;;4.32;2.42;;;;;;;16.71;48.80;101156.78;5051314;28;20040;-73
2023/08/05 03:42:56;;;;;;;4.65;2.80;;;;;;;16.66;49.19;101145.38;5067450;28;20036;-75
2023/08/05 03:45:24;;;;;;;4.88;2.92;;;;;;;16.63;49.06;101155.72;5048477;28;20086;-75
2023/08/05 03:47:53;;;;;;;3.78;2.45;;;;;;;16.61;48.87;101159.66;5046578;28;20056;-75
2023/08/05 03:50:23;;;;;;;3.50;2.20;;;;;;;16.60;49.00;101152.41;5051765;28;20448;-75
2023/08/05 03:52:53;;;;;;;4.28;2.92;;;;;;;16.58;49.42;101152.56;5051503;28;20106;-75
2023/08/05 03:55:21;;;;;;;4.15;2.47;;;;;;;16.57;49.48;101158.28;5048474;28;20040;-75
2023/08/05 03:57:50;;;;;;;4.30;2.42;;;;;;;16.58;48.75;101155.31;5048807;28;20044;-75
2023/08/05 04:00:18;;;;;;;4.95;2.22;;;;;;;16.56;49.02;101160.19;5052818;28;20476;-75
2023/08/05 04:02:47;;;;;;;4.50;2.63;;;;;;;16.56;49.35;101154.66;5066740;28;20507;-75
2023/08/05 04:05:15;;;;;;;4.05;2.25;;;;;;;16.56;49.20;101154.66;5049059;28;20530;-74
2023/08/05 04:07:44;;;;;;;3.65;2.67;;;;;;;16.55;49.05;101163.97;5044268;28;20790;-75
2023/08/05 04:10:12;;;;;;;4.15;2.50;;;;;;;16.55;49.24;101149.28;5043548;28;20067;-73
2023/08/05 04:12:40;;;;;;;4.20;2.40;;;;;;;16.56;48.96;101159.31;5064606;28;20111;-75
2023/08/05 04:15:13;;;;;;;3.85;2.22;;;;;;;16.57;48.70;101155.53;5043293;28;20074;-73
2023/08/05 04:17:44;;;;;;;5.13;2.30;;;;;;;16.53;48.96;101151.34;5052804;28;20040;-73
2023/08/05 04:20:12;;;;;;;3.67;2.50;;;;;;;16.54;48.75;101148.41;5048407;28;20047;-75
2023/08/05 04:22:40;;;;;;;3.67;2.55;;;;;;;16.51;48.64;101157.03;5066521;28;20539;-75
2023/08/05 04:25:09;;;;;;;5.82;2.58;;;;;;;16.49;48.61;101150.81;5050422;28;20062;-75
2023/08/05 04:27:37;;;;;;;4.65;3.00;;;;;;;16.46;49.07;101155.81;5066721;28;20045;-74
2023/08/05 04:30:07;;;;;;;4.63;2.63;;;;;;;16.44;48.91;101147.69;5067560;28;20482;-74
2023/08/05 04:32:37;;;;;;;4.35;2.72;;;;;;;16.42;48.86;101141.44;5046059;28;20033;-75
2023/08/05 04:35:06;;;;;;;4.10;2.75;;;;;;;16.38;48.84;101140.06;5067113;28;20375;-75
2023/08/05 04:37:34;;;;;;;4.28;2.67;;;;;;;16.36;49.08;101136.59;5048884;28;20036;-74
2023/08/05 04:40:02;;;;;;;4.13;2.65;;;;;;;16.34;49.59;101130.34;5049723;28;20036;-73
2023/08/05 04:42:29;;;;;;;4.22;2.85;;;;;;;16.34;49.41;101133.13;5048994;28;20090;-74
2023/08/05 04:44:57;;;;;;;4.07;2.80;;;;;;;16.34;50.03;101118.44;5066966;28;20276;-74
2023/08/05 04:47:25;;;;;;;6.20;3.00;;;;;;;16.34;49.69;101112.91;5051476;28;20049;-75
2023/08/05 04:49:55;;;;;;;4.60;2.78;;;;;;;16.35;50.43;101107.25;5044115;28;20360;-74
2023/08/05 04:52:23;;;;;;;4.07;2.65;;;;;;;16.34;50.21;101102.75;5066791;28;20040;-75
2023/08/05 04:54:51;;;;;;;4.38;2.90;;;;;;;16.35;49.96;101100.84;5049086;28;20036;-75
2023/08/05 04:57:20;;;;;;;4.50;2.95;;;;;;;16.36;50.61;101094.28;5049008;28;20040;-75
2023/08/05 04:59:48;;;;;;;5.57;3.15;;;;;;;16.37;50.16;101094.13;5047123;28;20101;-75
2023/08/05 05:02:16;;;;;;;5.35;2.85;;;;;;;16.37;50.10;101096.91;5066089;28;20492;-74
2023/08/05 05:04:44;;;;;;;4.90;3.17;;;;;;;16.37;50.04;101102.41;5063087;28;20543;-75
2023/08/05 05:07:13;;;;;;;4.40;2.78;;;;;;;16.39;50.46;101111.41;5049660;28;20101;-74
2023/08/05 05:09:41;;;;;;;4.80;3.10;;;;;;;16.38;50.50;101100.53;5065568;28;20390;-74
2023/08/05 05:12:09;;;;;;;4.45;3.00;;;;;;;16.40;50.85;101102.09;5050860;28;20186;-74
2023/08/05 05:14:43;;;;;;;4.78;2.95;;;;;;;16.45;51.14;101102.44;5052810;28;20113;-74
2023/08/05 05:17:11;;;;;;;4.15;3.00;;;;;;;16.45;51.06;101110.75;5065470;28;20041;-74
2023/08/05 05:19:39;;;;;;;4.25;2.85;;;;;;;16.48;51.42;101110.41;5051778;28;20098;-74
2023/08/05 05:22:07;;;;;;;4.82;3.30;;;;;;;16.52;51.60;101108.16;5066142;28;20048;-73
2023/08/05 05:24:36;;;;;;;6.30;3.33;;;;;;;16.58;51.15;101099.19;5066984;28;20033;-75
2023/08/05 05:27:05;;;;;;;4.82;3.28;;;;;;;16.61;51.45;101104.41;5054194;28;20048;-74
2023/08/05 05:29:32;;;;;;;4.70;3.25;;;;;;;16.65;51.60;101100.28;5051986;28;20340;-75
2023/08/05 05:32:00;;;;;;;4.93;3.20;;;;;;;16.71;51.72;101094.06;5066541;28;20121;-74
2023/08/05 05:34:28;;;;;;;5.45;3.33;;;;;;;16.77;51.53;101092.53;5064319;28;20127;-75
2023/08/05 05:36:56;;;;;;;4.72;3.13;;;;;;;16.82;51.27;101095.66;5059788;28;20116;-74
2023/08/05 05:39:25;;;;;;;5.13;3.47;;;;;;;16.86;51.14;101097.03;5046864;28;20053;-75
2023/08/05 05:41:56;;;;;;;4.40;3.25;;;;;;;16.91;51.09;101098.25;5055143;28;20052;-74
2023/08/05 05:44:23;;;;;;;5.28;3.10;;;;;;;16.91;50.72;101098.25;5039450;28;20055;-75
2023/08/05 05:46:51;;;;;;;6.47;3.50;;;;;;;16.93;50.77;101104.47;5056577;28;20088;-75
2023/08/05 05:49:20;;;;;;;5.28;3.30;;;;;;;16.94;51.12;101106.22;5056767;28;20052;-73
2023/08/05 05:51:48;;;;;;;6.32;3.38;;;;;;;16.97;50.87;101110.59;5057139;28;20044;-74
2023/08/05 05:54:16;;;;;;;5.82;3.47;;;;;;;16.99;51.31;101109.34;5059944;28;20505;-75
2023/08/05 05:56:44;;;;;;;5.38;3.60;;;;;;;17.01;51.16;101109.19;5042820;28;20052;-74
2023/08/05 05:59:14;;;;;;;5.82;3.28;;;;;;;17.07;50.98;101118.72;5057693;28;20041;-74
2023/08/05 06:01:42;;;;;;;7.45;3.25;;;;;;;17.06;51.01;101115.09;5060112;28;20043;-74
2023/08/05 06:04:09;;;;;;;4.75;3.30;;;;;;;17.10;51.28;101118.38;5041766;28;20060;-74
2023/08/05 06:06:38;;;;;;;4.85;3.45;;;;;;;17.13;51.29;101123.56;5061597;28;20135;-73
2023/08/05 06:09:07;;;;;;;7.55;3.85;;;;;;;17.15;51.17;101118.75;5058278;28;20036;-74
2023/08/05 06:11:35;;;;;;;7.22;4.20;;;;;;;17.17;50.96;101119.41;5048145;28;20149;-73
2023/08/05 06:14:04;;;;;;;5.60;4.03;;;;;;;17.17;50.67;101114.75;5049457;28;20237;-71
2023/08/05 06:16:33;;;;;;;5.10;3.70;;;;;;;17.20;50.62;101119.94;5065462;28;20132;-73
2023/08/05 06:19:04;;;;;;;5.13;3.60;;;;;;;17.17;50.83;101117.50;5065792;28;20052;-73
2023/08/05 06:21:32;;;;;;;5.43;4.00;;;;;;;17.19;50.58;101117.34;5048901;28;20041;-73
2023/08/05 06:24:00;;;;;;;5.30;3.55;;;;;;;17.20;50.30;101113.53;5066552;28;20467;-74
2023/08/05 06:26:28;;;;;;;7.10;3.95;;;;;;;17.20;50.56;101116.31;5066217;28;20075;-73
2023/08/05 06:28:56;;;;;;;5.95;3.60;;;;;;;17.21;50.94;101126.34;5064634;28;20048;-74
2023/08/05 06:31:24;;;;;;;6.35;4.07;;;;;;;17.21;50.91;101129.09;5065063;28;20098;-73
2023/08/05 06:33:53;;;;;;;5.30;3.60;;;;;;;17.23;50.95;101119.63;5066113;28;20131;-74
2023/08/05 06:36:21;;;;;;;5.85;3.75;;;;;;;17.21;50.83;101121.69;5046849;28;20144;-75
2023/08/05 06:38:49;;;;;;;7.32;3.92;;;;;;;17.22;50.49;101122.53;5066063;28;20476;-74
2023/08/05 06:41:18;;;;;;;5.38;4.38;;;;;;;17.22;50.78;101134.47;5068601;28;20598;-74
2023/08/05 06:43:46;;;;;;;6.50;3.67;;;;;;;17.22;50.30;101128.06;5050051;28;20415;-72
2023/08/05 06:46:14;;;;;;;7.13;3.88;;;;;;;17.21;50.71;101132.75;5051911;28;20123;-72
2023/08/05 06:48:42;;;;;;;6.30;3.97;;;;;;;17.23;50.52;101129.81;5047949;28;20479;-74
2023/08/05 06:51:11;;;;;;;5.72;4.18;;;;;;;17.24;50.52;101120.44;5066712;28;20044;-71
2023/08/05 06:53:44;;;;;;;6.70;4.53;;;;;;;17.23;50.84;101116.84;5048410;28;20059;-75
2023/08/05 06:56:12;;;;;;;5.72;4.13;;;;;;;17.22;50.79;101112.34;5056589;28;20047;-73
2023/08/05 06:58:40;;;;;;;6.07;4.50;;;;;;;17.25;50.89;101111.13;5052133;28;20059;-76
2023/08/05 07:01:08;;;;;;;8.35;5.20;;;;;;;17.24;50.73;101107.47;5059809;28;20051;-76
2023/08/05 07:03:36;;;;;;;6.00;5.00;;;;;;;17.26;50.85;101104.56;5068050;28;20071;-73
2023/08/05 07:06:04;;;;;;;6.82;5.35;;;;;;;17.26;50.88;101099.88;5067061;28;20407;-73
2023/08/05 07:08:33;;;;;;;7.00;5.68;;;;;;;17.29;50.75;101098.69;5064721;28;20519;-74
2023/08/05 07:11:01;;;;;;;7.88;6.10;;;;;;;17.27;50.71;101090.56;5051623;28;20115;-74
2023/08/05 07:13:29;;;;;;;7.10;5.50;;;;;;;17.29;50.69;101096.78;5056832;28;20124;-76
2023/08/05 07:16:00;;;;;;;7.72;4.90;;;;;;;17.31;50.56;101093.84;5069051;28;20044;-76
2023/08/05 07:18:29;;;;;;;6.20;4.95;;;;;;;17.29;50.75;101077.41;5069934;28;20047;-75
2023/08/05 07:20:56;;;;;;;5.88;4.18;;;;;;;17.29;50.58;101069.13;5070708;28;20469;-76
2023/08/05 07:23:25;;;;;;;6.60;4.78;;;;;;;17.31;50.36;101069.81;5052023;28;20052;-73
2023/08/05 07:25:54;;;;;;;6.15;4.63;;;;;;;17.35;51.04;101064.78;5070382;28;20067;-74
2023/08/05 07:28:22;;;;;;;6.50;4.30;;;;;;;17.36;51.14;101074.81;5070057;28;20135;-75
2023/08/05 07:31:02;;;;;;;6.10;4.55;;;;;;;17.44;50.63;101071.19;5049753;28;20098;-75
2023/08/05 07:33:30;;;;;;;6.82;4.47;;;;;;;17.45;51.51;101073.78;5065988;28;20037;-75
2023/08/05 07:36:00;;;;;;;6.97;5.18;;;;;;;17.51;51.57;101075.84;5069279;28;20048;-73
2023/08/05 07:38:29;;;;;;;7.38;6.00;;;;;;;17.57;51.16;101069.59;5065228;28;20044;-75
2023/08/05 07:40:59;;;;;;;7.88;6.05;;;;;;;17.66;51.21;101064.91;5067800;28;20045;-74
2023/08/05 07:43:29;;;;;;;8.25;6.30;;;;;;;17.71;50.82;101055.06;5065331;28;20105;-72
2023/08/05 07:45:59;;;;;;;10.30;7.80;;;;;;;17.77;50.83;101050.75;5070366;28;20057;-73
2023/08/05 07:48:27;;;;;;;8.27;6.32;;;;;;;17.85;50.30;101047.09;5069141;28;20044;-73
2023/08/05 07:50:55;;;;;;;8.25;6.90;;;;;;;17.90;50.45;101045.50;5068997;28;20072;-73
2023/08/05 07:53:24;;;;;;;8.32;7.05;;;;;;;17.96;50.67;101043.97;5070422;28;20424;-73
2023/08/05 07:55:53;;;;;;;7.82;5.50;;;;;;;18.01;50.36;101031.28;5070515;28;20044;-73
2023/08/05 07:58:23;;;;;;;7.25;5.63;;;;;;;18.11;50.39;101028.31;5070592;28;20751;-73
2023/08/05 08:00:55;;;;;;;8.15;5.28;;;;;;;18.20;49.66;101024.47;5069442;28;20062;-73
2023/08/05 08:03:27;;;;;;;7.25;4.88;;;;;;;18.22;50.17;101022.38;5070851;28;20101;-73
2023/08/05 08:05:55;;;;;;;5.15;4.63;;;;;;;18.28;50.04;101015.25;5069491;28;20049;-73
2023/08/05 08:08:23;;;;;;;6.30;4.55;;;;;;;18.35;49.40;101019.03;5070773;28;20041;-73
2023/08/05 08:10:51;;;;;;;5.93;4.03;;;;;;;18.39;49.23;101018.47;5070597;28;20041;-73
2023/08/05 08:13:19;;;;;;;4.75;3.58;;;;;;;18.45;49.31;101011.34;5068601;28;20111;-73
2023/08/05 08:15:48;;;;;;;5.50;3.80;;;;;;;18.51;49.31;101010.66;5070153;28;20048;-73
2023/08/05 08:18:16;;;;;;;5.28;3.58;;;;;;;18.53;48.95;101005.78;5070761;28;20052;-73
2023/08/05 08:20:49;;;;;;;5.65;3.22;;;;;;;18.60;48.20;101003.13;5070884;28;20052;-73
2023/08/05 08:23:17;;;;;;;5.25;3.85;;;;;;;18.61;49.18;101004.88;5068726;28;20135;-73
2023/08/05 08:25:45;;;;;;;5.00;3.90;;;;;;;18.65;48.95;101000.66;5068733;28;20075;-73
2023/08/05 08:28:13;;;;;;;5.53;3.67;;;;;;;18.69;48.89;101005.69;5070155;28;20366;-73
2023/08/05 08:30:53;;;;;;;4.28;3.33;;;;;;;18.78;48.41;100992.63;5070315;28;20124;-73
2023/08/05 08:33:22;;;;;;;3.50;2.47;;;;;;;18.81;48.75;100997.78;5070522;28;20064;-73
2023/08/05 08:35:50;;;;;;;4.57;2.63;;;;;;;18.86;48.55;100996.19;5068682;28;20048;-73
2023/08/05 08:38:18;;;;;;;4.25;2.63;;;;;;;18.92;48.50;100994.56;5068734;28;20045;-73
2023/08/05 08:40:47;;;;;;;3.58;2.35;;;;;;;18.98;48.06;100982.72;5070280;28;20074;-73
2023/08/05 08:43:18;;;;;;;3.80;2.45;;;;;;;19.05;47.79;100977.31;5068236;28;20055;-73
2023/08/05 08:45:48;;;;;;;4.55;2.50;;;;;;;19.10;47.60;100974.84;5067492;28;20410;-73
2023/08/05 08:48:17;;;;;;;3.92;2.75;;;;;;;19.14;47.58;100974.25;5069420;28;20042;-73
2023/08/05 08:50:49;;;;;;;4.43;2.47;;;;;;;19.14;47.10;100974.25;5069677;28;20158;-73
2023/08/05 08:53:17;;;;;;;3.70;2.10;;;;;;;19.19;47.24;100963.47;5069662;28;20040;-73
2023/08/05 08:55:45;;;;;;;3.92;2.55;;;;;;;19.20;47.06;100940.28;5069170;28;20054;-73
2023/08/05 08:58:13;;;;;;;5.25;2.40;;;;;;;19.24;46.72;100944.38;5068148;28;20088;-73
2023/08/05 09:00:41;;;;;;;3.53;1.90;;;;;;;19.29;46.75;100940.19;5069554;28;20348;-73
2023/08/05 09:03:10;;;;;;;2.95;1.80;;;;;;;19.35;46.50;100944.97;5067661;28;20408;-72
2023/08/05 09:05:45;;;;;;;3.13;2.03;;;;;;;19.39;45.81;100933.28;5068505;28;20123;-73
2023/08/05 09:08:14;;;;;;;3.08;1.80;;;;;;;19.41;46.17;100919.22;5067663;28;20052;-73
2023/08/05 09:10:44;;;;;;;2.80;1.85;;;;;;;19.46;46.15;100917.59;5069431;28;20132;-73
2023/08/05 09:13:16;;;;;;;4.07;2.38;;;;;;;19.46;45.79;100919.53;5069564;28;20127;-73
2023/08/05 09:15:44;;;;;;;2.95;2.00;;;;;;;19.49;45.74;100906.13;5069293;28;20045;-73
2023/08/05 09:18:12;;;;;;;3.67;2.00;;;;;;;19.54;45.77;100911.09;5069578;28;20373;-73
2023/08/05 09:20:42;;;;;;;2.95;2.03;;;;;;;19.60;45.67;100919.53;5068373;28;20515;-74
2023/08/05 12:37:54;;;;;;;2.67;1.50;;;;;;;21.20;38.59;100639.97;5054994;28;20407;-84
2023/08/05 12:40:22;;;;;;;2.80;1.60;;;;;;;21.27;37.89;100642.84;5054835;28;20143;-84
2023/08/05 12:42:50;;;;;;;2.70;1.67;;;;;;;21.31;38.14;100636.63;5052942;28;20503;-84
2023/08/05 12:45:18;;;;;;;1.83;1.25;;;;;;;21.34;38.01;100630.66;5057736;28;20112;-83
2023/08/05 12:47:46;;;;;;;2.85;1.60;;;;;;;21.37;38.20;100629.34;5056679;28;20068;-84
2023/08/05 12:50:14;;;;;;;2.55;1.67;;;;;;;21.37;38.17;100627.44;5058827;28;20076;-83
2023/08/05 12:52:42;;;;;;;2.30;1.63;;;;;;;21.39;38.45;100639.22;5049894;28;20381;-82
2023/08/05 12:55:11;;;;;;;2.67;1.63;;;;;;;21.41;38.53;100636.22;5048911;28;20060;-82
2023/08/05 12:57:39;;;;;;;2.28;1.50;;;;;;;21.40;38.51;100649.28;5059170;28;20045;-82
2023/08/05 13:00:10;;;;;;;2.35;1.80;;;;;;;21.40;38.69;100640.06;5057340;28;20068;-82
2023/08/05 13:03:14;;;;;;;2.05;1.33;;;;;;;21.33;38.65;100650.34;5049364;28;20113;-84
2023/08/05 13:05:55;;;;;;;1.77;1.30;;;;;;;21.31;38.77;100647.75;5065052;28;20094;-82
2023/08/05 13:12:43;;;;;;;3.17;1.70;;;;;;;21.19;39.53;100638.25;5048758;28;20087;-82
2023/08/05 13:15:32;;;;;;;2.70;1.60;;;;;;;21.14;39.61;100638.03;5050978;28;20133;-84
2023/08/05 13:18:14;;;;;;;2.85;1.65;;;;;;;21.07;39.61;100663.06;5066983;28;20052;-82
2023/08/05 14:06:41;;;;;;;4.18;2.28;;;;;;;18.60;46.39;100559.66;5047922;28;20040;-85
2023/08/05 14:10:16;;;;;;;3.25;2.25;;;;;;;18.49;46.82;100552.69;5058354;28;20421;-86
2023/08/05 14:17:22;;;;;;;3.80;2.67;;;;;;;18.24;46.34;100563.19;5061559;28;20041;-85
2023/08/05 14:36:33;;;;;;;4.00;2.53;;;;;;;17.99;47.43;100587.53;5027480;28;20083;-85
2023/08/05 14:39:14;;;;;;;4.55;2.55;;;;;;;18.00;47.75;100580.09;5051303;28;20037;-85
2023/08/05 14:42:01;;;;;;;4.88;2.47;;;;;;;18.01;48.53;100565.19;5029284;28;20049;-84
2023/08/05 14:54:32;;;;;;;3.47;2.38;;;;;;;18.03;49.23;100566.75;5046967;28;20055;-85
2023/08/05 14:57:10;;;;;;;4.18;2.70;;;;;;;18.08;48.81;100563.38;5056118;28;20135;-85
2023/08/05 14:59:57;;;;;;;3.60;2.67;;;;;;;18.07;49.00;100558.88;5035579;28;20362;-84
2023/08/05 15:02:29;;;;;;;;;;;;;;;17.80;50.09;100554.88;5067583;28;20069;-85
2023/08/05 15:05:04;;;;;;;5.00;2.78;;;;;;;18.01;49.37;100543.91;5055690;28;19927;-85
2023/08/05 15:11:04;;;;;;;3.87;2.63;;;;;;;18.06;49.77;100535.88;5042200;28;20524;-85
2023/08/05 15:14:04;;;;;;;4.47;2.65;;;;;;;18.09;49.35;100526.34;5052563;28;20105;-85
2023/08/05 15:16:39;;;;;;;3.90;2.50;;;;;;;18.08;49.45;100521.84;5050965;28;20519;-85
2023/08/05 15:19:26;;;;;;;5.15;3.03;;;;;;;18.11;49.28;100519.56;5037336;28;20086;-86
2023/08/05 15:25:16;;;;;;;3.92;3.03;;;;;;;18.10;49.53;100528.91;5054358;28;20041;-84
2023/08/05 15:27:45;;;;;;;5.38;3.30;;;;;;;18.13;49.61;100530.44;5054782;28;20136;-85
2023/08/05 15:30:13;;;;;;;4.57;3.33;;;;;;;18.11;49.98;100530.63;5056330;28;20036;-85
2023/08/05 15:32:41;;;;;;;5.43;3.38;;;;;;;18.12;49.67;100526.81;5057403;28;20032;-86
2023/08/05 15:35:12;;;;;;;4.10;2.67;;;;;;;18.11;49.51;100518.69;5059144;28;20043;-84
2023/08/05 15:37:46;;;;;;;4.72;2.75;;;;;;;18.10;49.81;100525.28;5051637;28;20397;-86
2023/08/05 15:48:20;;;;;;;4.55;2.47;;;;;;;17.98;50.56;100504.66;5012616;28;20037;-84
2023/08/05 15:51:14;;;;;;;4.03;2.78;;;;;;;17.98;50.03;100501.88;5067529;28;20080;-79
2023/08/05 15:53:42;;;;;;;4.30;2.90;;;;;;;18.00;50.70;100511.72;5062938;28;20069;-81
2023/08/05 15:56:10;;;;;;;5.63;3.10;;;;;;;18.00;50.75;100508.97;5055406;28;20063;-82
2023/08/05 15:58:38;;;;;;;5.07;3.13;;;;;;;18.02;50.60;100506.88;5054791;28;20475;-80
2023/08/05 16:01:07;;;;;;;5.07;2.88;;;;;;;18.03;50.97;100513.25;5052992;28;20147;-81
2023/08/05 16:03:36;;;;;;;4.85;3.20;;;;;;;18.04;50.25;100512.22;5049299;28;20048;-81
2023/08/05 16:06:06;;;;;;;4.93;3.08;;;;;;;18.03;51.00;100510.50;5051399;28;20068;-81
2023/08/05 16:08:35;;;;;;;4.47;3.03;;;;;;;18.01;51.00;100505.13;5037294;28;20493;-81
2023/08/05 16:11:04;;;;;;;5.85;3.60;;;;;;;18.05;51.03;100502.88;5054128;28;20044;-82
2023/08/05 16:13:33;;;;;;;6.70;3.70;;;;;;;18.07;51.53;100506.28;5055784;28;20127;-80
2023/08/05 16:16:11;;;;;;;5.65;3.13;;;;;;;18.09;52.21;100510.56;5047697;28;20781;-81
2023/08/05 16:18:41;;;;;;;4.53;2.70;;;;;;;18.10;50.96;100506.75;5052184;28;20375;-81
2023/08/05 16:21:13;;;;;;;4.40;2.88;;;;;;;18.12;50.91;100506.56;5051843;28;20041;-79
2023/08/05 16:23:41;;;;;;;;;;;;;;;17.83;51.98;100498.25;5055251;28;20185;-79
2023/08/05 16:26:10;;;;;;;3.65;2.30;;;;;;;18.09;51.28;100498.63;5052668;28;19996;-80
2023/08/05 16:28:38;;;;;;;4.05;2.20;;;;;;;18.13;51.10;100489.78;5051452;28;20742;-79
2023/08/05 16:31:09;;;;;;;4.20;2.40;;;;;;;18.15;50.52;100487.66;5055546;28;20045;-81